Huvudsida
METAR-TAF:

METAR-TAF

Flygplatser :

Kushok Bakula Rimpochhe Airport

Leh, Indien

latitud: 34-08-09N, longitud: 077-32-47E, höjd: 3256 m

Aktuellt väderrapport

Denna rapport gjordes för 16 timmar och 17 minuter sedan, klockan 18:00 UTC
Vind 12 kt från väst/nordväst i byarna ända upp till 22 kt
Temperatur 17°C
Fuktighet 20%
Tryck 1022 hPa
Sikt: 6000 m
Få moln på en höjd av 7000 ft
Spridda moln på en höjd av 12000 ft

METAR: VILH 191800Z 29012G22KT 6000 FEW070 SCT120 17/M06 Q1022 NOSIG

Tid: 15:47 (10:17 UTC)

Väderprognos

Denna rapport gjordes för 6 timmar och 47 minuter sedan, klockan 03:30 UTC
Prognos gäller från 20 kl. 06 UTC till 20 kl. 18 UTC
Vind 10 kt från väst/nordväst
Sikt: 6000 m
Spridda moln på en höjd av 7000 ft
Spridda moln på en höjd av 12000 ft
Temporärt
från 20 kl. 09 UTC till 20 kl. 13 UTC
Vind 15 kt från väst/nordväst i byarna ända upp till 25 kt

TAF: VILH 200330Z 2006/2018 29010KT 6000 SCT070 SCT120 TEMPO 2009/2013 29015G25KT

Aktuella väderrapporter och prognoser från 4000 flygplatser (METAR- och TAF-rapporter).

De tillgängliga stationerna syns som gula och röda prickar på kartan.

För musen över prickarna för att se namnen på stationerna.

Klicka sedan för att få väderrapporter och prognoser.

För att ändra kartan: Klicka på de gröna knapparna med ett svart kors på för att zooma in; den gröna knappen med ett streck på för att zooma ut; eller på de gröna pilarna för angränsande kartor.


METAR-TAF: